This is the latest recevied weather packets stored in our database for station/object dl9mfl-6. If no packets are shown the sender has not sent any weather packets the latest 10 day(s).
| Time | Temp. | Humidity | Pressure | Rain* | Wind** | Luminosity | Snow |
|---|---|---|---|---|---|---|---|
| 1777741724 | 2.78° C | 79% | 1020.8 hPa | 0 mm | - | - | - |
| 1777741716 | 2.78° C | 80% | 1020.8 hPa | 0 mm | - | - | - |
| 1777741712 | 23.33° C | 37% | 1015 hPa | 0 mm | - | - | - |
| 1777741708 | 2.78° C | 80% | 1020.8 hPa | 0 mm | - | - | - |
| 1777741704 | 2.78° C | 80% | 1020.8 hPa | 0 mm | - | - | - |
| 1777741700 | 2.78° C | 80% | 1020.8 hPa | 0 mm | - | - | - |
| 1777741696 | 2.78° C | 80% | 1020.8 hPa | 0 mm | - | - | - |
| 1777741688 | 2.78° C | 81% | 1020.8 hPa | 0 mm | - | - | - |
| 1777741684 | 2.78° C | 81% | 1020.8 hPa | 0 mm | - | - | - |
| 1777741680 | 2.78° C | 81% | 1020.8 hPa | 0 mm | - | - | - |
| 1777741675 | 2.78° C | 81% | 1020.8 hPa | 0 mm | - | - | - |
| 1777741672 | 2.78° C | 81% | 1020.8 hPa | 0 mm | - | - | - |
| 1777741663 | 2.78° C | 81% | 1020.9 hPa | 0 mm | - | - | - |
| 1777741659 | 2.78° C | 81% | 1020.8 hPa | 0 mm | - | - | - |
| 1777741655 | 2.78° C | 80% | 1020.9 hPa | 0 mm | - | - | - |
| 1777741651 | 23.33° C | 37% | 1015 hPa | 0 mm | - | - | - |
| 1777741647 | 2.78° C | 80% | 1020.9 hPa | 0 mm | - | - | - |
| 1777741643 | 2.78° C | 80% | 1020.8 hPa | 0 mm | - | - | - |
| 1777741634 | 3.33° C | 80% | 1020.9 hPa | 0 mm | - | - | - |
| 1777741631 | 3.33° C | 80% | 1020.9 hPa | 0 mm | - | - | - |
| 1777741627 | 3.33° C | 80% | 1020.9 hPa | 0 mm | - | - | - |
| 1777741622 | 3.33° C | 80% | 1020.8 hPa | 0 mm | - | - | - |
| 1777741618 | 3.33° C | 79% | 1020.9 hPa | 0 mm | - | - | - |
| 1777741614 | 23.33° C | 35% | 1015.1 hPa | 0 mm | - | - | - |
| 1777741610 | 23.33° C | 36% | 1015 hPa | 0 mm | - | - | - |
* Rain latest hour (hover to see other rain measurements)
** Current wind speed in m/s (hover to see current wind gust speed)